createdAt,value
2024-04-10T00:03:07.529Z,98452.66
2024-04-10T00:08:10.420Z,98451.83
2024-04-10T00:13:13.421Z,98457.52
2024-04-10T00:18:16.322Z,98463.20
2024-04-10T00:23:19.457Z,98467.67
2024-04-10T00:28:22.802Z,98475.95
2024-04-10T00:33:25.848Z,98485.42
2024-04-10T00:38:30.181Z,98484.86
2024-04-10T00:43:34.209Z,98488.96
2024-04-10T00:48:37.638Z,98487.48
2024-04-10T00:53:42.452Z,98495.38
2024-04-10T00:58:45.704Z,98507.33
2024-04-10T01:03:49.005Z,98511.39
2024-04-10T01:08:52.396Z,98519.06
2024-04-10T01:13:55.373Z,98530.48
2024-04-10T01:18:58.254Z,98543.62
2024-04-10T01:24:01.478Z,98551.06
2024-04-10T01:29:04.341Z,98552.69
2024-04-10T01:34:07.798Z,98557.54
2024-04-10T01:39:10.751Z,98563.50
2024-04-10T01:44:13.653Z,98564.48
2024-04-10T01:49:16.540Z,98577.61
2024-04-10T01:54:19.866Z,98583.87
2024-04-10T01:59:22.810Z,98589.23
2024-04-10T02:04:25.969Z,98589.45
2024-04-10T02:09:29.410Z,98596.10
2024-04-10T02:14:36.216Z,98605.13
2024-04-10T02:19:39.123Z,98614.16
2024-04-10T02:24:41.909Z,98620.27
2024-04-10T02:29:44.927Z,98619.95
2024-04-10T02:34:48.146Z,98620.05
2024-04-10T02:39:51.104Z,98626.42
2024-04-10T02:44:54.005Z,98631.13
2024-04-10T02:49:56.820Z,98642.16
2024-04-10T02:54:59.644Z,98643.67
2024-04-10T03:00:03.818Z,98651.81
2024-04-10T03:05:08.054Z,98664.74
2024-04-10T03:10:11.200Z,98676.56
2024-04-10T03:15:17.199Z,98682.39
2024-04-10T03:20:20.142Z,98686.91
2024-04-10T03:25:22.979Z,98699.36
2024-04-10T03:30:26.590Z,98713.95
2024-04-10T03:35:31.035Z,98725.40
2024-04-10T03:40:34.021Z,98735.98
2024-04-10T03:45:37.280Z,98746.98
2024-04-10T03:50:40.260Z,98755.35
2024-04-10T03:55:43.408Z,98761.58
2024-04-10T04:00:48.342Z,98779.16
2024-04-10T04:05:51.647Z,98785.46
2024-04-10T04:10:55.699Z,98806.20
2024-04-10T04:15:58.807Z,98824.78
2024-04-10T04:21:01.696Z,98837.42
2024-04-10T04:26:05.167Z,98845.85
2024-04-10T04:31:08.025Z,98852.92
2024-04-10T04:36:11.351Z,98865.61
2024-04-10T04:41:14.427Z,98880.61
2024-04-10T04:46:18.887Z,98896.63
2024-04-10T04:51:21.913Z,98915.65
2024-04-10T04:56:24.779Z,98930.70
2024-04-10T05:01:28.123Z,98942.52
2024-04-10T05:06:30.978Z,98953.91
2024-04-10T05:11:34.148Z,98961.19
2024-04-10T05:16:37.159Z,98977.27
2024-04-10T05:21:40.078Z,98986.98
2024-04-10T05:26:43.150Z,98990.23
2024-04-10T05:31:45.960Z,99005.12
2024-04-10T05:36:50.339Z,99011.35
2024-04-10T05:41:54.666Z,99026.91
2024-04-10T05:46:57.613Z,99046.02
2024-04-10T05:52:00.439Z,99048.65
2024-04-10T05:57:03.625Z,99070.71
2024-04-10T06:02:07.720Z,99081.94
2024-04-10T06:07:10.848Z,99092.65
2024-04-10T06:12:13.808Z,99099.52
2024-04-10T06:17:16.895Z,99106.66
2024-04-10T06:22:23.005Z,99110.98
2024-04-10T06:27:26.881Z,99116.66
2024-04-10T06:32:30.098Z,99128.89
2024-04-10T06:37:34.530Z,99140.52
2024-04-10T06:42:37.418Z,99155.53
2024-04-10T06:47:41.798Z,99165.91
2024-04-10T06:52:45.491Z,99175.36
2024-04-10T06:57:48.383Z,99184.61
2024-04-10T07:02:51.703Z,99192.52
2024-04-10T07:07:54.888Z,99191.77
2024-04-10T07:12:57.735Z,99199.89
2024-04-10T07:18:00.968Z,99214.52
2024-04-10T07:23:06.912Z,99218.76
2024-04-10T07:28:09.911Z,99224.70
2024-04-10T07:33:12.869Z,99239.71
2024-04-10T07:38:17.277Z,99242.89
2024-04-10T07:43:20.487Z,99251.68
2024-04-10T07:48:24.272Z,99268.05
2024-04-10T07:53:27.646Z,99282.77
2024-04-10T07:58:30.968Z,99287.85
2024-04-10T08:03:35.361Z,99293.09
2024-04-10T08:08:41.214Z,99297.27
2024-04-10T08:13:44.340Z,99306.02
2024-04-10T08:18:47.776Z,99315.61
2024-04-10T08:23:51.047Z,99320.16
2024-04-10T08:28:53.993Z,99323.21
2024-04-10T08:33:57.150Z,99328.08
2024-04-10T08:39:00.270Z,99338.34
2024-04-10T08:44:04.575Z,99346.59
2024-04-10T08:49:10.140Z,99355.90
2024-04-10T08:54:15.421Z,99363.92
2024-04-10T08:59:18.370Z,99377.38
2024-04-10T09:04:23.870Z,99383.64
2024-04-10T09:09:26.043Z,99392.60
2024-04-10T09:14:29.144Z,99401.62
2024-04-10T09:19:32.134Z,99412.55
2024-04-10T09:24:35.116Z,99421.39
2024-04-10T09:29:38.076Z,99429.95
2024-04-10T09:34:42.220Z,99435.67
2024-04-10T09:39:45.223Z,99437.20
2024-04-10T09:44:54.324Z,99441.20
2024-04-10T09:50:00.877Z,99450.52
2024-04-10T09:55:05.460Z,99449.72
2024-04-10T10:00:12.074Z,99455.36
2024-04-10T10:05:22.603Z,99465.92
2024-04-10T10:10:26.022Z,99473.94
2024-04-10T10:15:29.269Z,99480.69
2024-04-10T10:20:34.136Z,99492.05
2024-04-10T10:25:37.457Z,99500.45
2024-04-10T10:30:42.679Z,99515.59
2024-04-10T10:35:47.885Z,99518.33
2024-04-10T10:40:50.737Z,99521.67
2024-04-10T10:45:54.690Z,99529.86
2024-04-10T10:50:58.551Z,99545.33
2024-04-10T10:56:01.718Z,99547.13
2024-04-10T11:01:08.642Z,99553.16
2024-04-10T11:06:12.835Z,99560.52
2024-04-10T11:11:17.265Z,99565.59
2024-04-10T11:16:32.145Z,99569.66
2024-04-10T11:21:36.677Z,99575.98
2024-04-10T11:26:42.860Z,99583.77
2024-04-10T11:31:45.768Z,99585.15
2024-04-10T11:36:49.289Z,99596.23
2024-04-10T11:41:52.364Z,99598.57
2024-04-10T11:46:55.671Z,99605.50
2024-04-10T11:51:58.569Z,99613.80
2024-04-10T11:57:05.762Z,99613.80
2024-04-10T12:02:08.891Z,99624.05
2024-04-10T12:07:11.794Z,99634.18
2024-04-10T12:12:14.803Z,99633.91
2024-04-10T12:17:18.824Z,99630.98
2024-04-10T12:22:21.836Z,99628.27
2024-04-10T12:27:25.667Z,99631.71
2024-04-10T12:32:28.699Z,99627.68
2024-04-10T12:38:01.173Z,99624.58
2024-04-10T12:43:04.379Z,99625.86
2024-04-10T12:48:09.416Z,99625.30
2024-04-10T12:53:12.644Z,99622.80
2024-04-10T12:58:15.649Z,99627.34
2024-04-10T13:03:20.484Z,99624.61
2024-04-10T13:08:23.557Z,99630.60
2024-04-10T13:13:31.561Z,99637.77
2024-04-10T13:18:43.286Z,99639.86
2024-04-10T13:23:48.328Z,99636.63
2024-04-10T13:28:52.793Z,99638.98
2024-04-10T13:33:59.112Z,99649.70
2024-04-10T13:39:02.384Z,99654.07
2024-04-10T13:44:05.818Z,99657.23
2024-04-10T13:49:08.793Z,99656.44
2024-04-10T13:54:12.559Z,99655.52
2024-04-10T13:59:15.603Z,99661.60
2024-04-10T14:04:18.663Z,99680.25
2024-04-10T14:09:21.517Z,99686.09
2024-04-10T14:14:24.971Z,99683.98
2024-04-10T14:19:27.753Z,99679.15
2024-04-10T14:24:32.250Z,99686.06
2024-04-10T14:29:37.023Z,99691.20
2024-04-10T14:34:40.060Z,99700.69
2024-04-10T14:39:43.127Z,99710.31
2024-04-10T14:44:46.093Z,99709.63
2024-04-10T14:49:52.955Z,99707.77
2024-04-10T14:54:55.853Z,99708.98
2024-04-10T14:59:58.757Z,99707.30
2024-04-10T15:05:02.658Z,99711.11
2024-04-10T15:10:10.637Z,99716.21
2024-04-10T15:15:15.239Z,99723.73
2024-04-10T15:20:18.618Z,99729.91
2024-04-10T15:25:22.131Z,99731.27
2024-04-10T15:30:25.216Z,99740.31
2024-04-10T15:35:29.242Z,99739.79
2024-04-10T15:40:32.245Z,99748.95
2024-04-10T15:45:39.874Z,99753.00
2024-04-10T15:50:42.782Z,99753.95
2024-04-10T15:55:45.829Z,99756.55
2024-04-10T16:00:48.803Z,99765.67
2024-04-10T16:05:51.805Z,99775.15
2024-04-10T16:10:55.374Z,99771.44
2024-04-10T16:16:05.763Z,99777.66
2024-04-10T16:21:10.075Z,99780.59
2024-04-10T16:26:15.418Z,99776.96
2024-04-10T16:31:19.731Z,99779.36
2024-04-10T16:36:22.756Z,99777.45
2024-04-10T16:41:25.776Z,99789.17
2024-04-10T16:46:28.647Z,99803.21
2024-04-10T16:51:31.532Z,99814.08
2024-04-10T16:56:34.440Z,99816.98
2024-04-10T17:01:37.378Z,99824.50
2024-04-10T17:06:42.493Z,99826.52
2024-04-10T17:11:45.525Z,99832.98
2024-04-10T17:16:51.401Z,99837.90
2024-04-10T17:21:57.383Z,99848.81
2024-04-10T17:27:01.001Z,99860.43
2024-04-10T17:32:04.758Z,99868.08
2024-04-10T17:37:07.613Z,99877.79
2024-04-10T17:42:10.624Z,99887.29
2024-04-10T17:47:13.523Z,99899.84
2024-04-10T17:52:16.355Z,99914.48
2024-04-10T17:57:19.255Z,99921.09
2024-04-10T18:02:22.360Z,99932.54
2024-04-10T18:07:25.252Z,99937.38
2024-04-10T18:12:28.265Z,99941.67
2024-04-10T18:17:31.515Z,99953.58
2024-04-10T18:22:35.098Z,99952.66
2024-04-10T18:27:38.093Z,99958.68
2024-04-10T18:32:41.408Z,99967.77
2024-04-10T18:37:44.604Z,99973.27
2024-04-10T18:42:51.358Z,99978.91
2024-04-10T18:47:54.658Z,99988.21
2024-04-10T18:52:57.644Z,99990.77
2024-04-10T18:58:00.494Z,99990.36
2024-04-10T19:03:03.585Z,99998.21
2024-04-10T19:08:08.885Z,100003.14
2024-04-10T19:13:56.102Z,100008.96
2024-04-10T19:18:59.551Z,100015.04
2024-04-10T19:24:03.037Z,100021.30
2024-04-10T19:29:06.353Z,100023.61
2024-04-10T19:34:10.133Z,100024.69
2024-04-10T19:39:15.270Z,100023.45
2024-04-10T19:44:19.866Z,100032.25
2024-04-10T19:49:23.096Z,100037.75
2024-04-10T19:54:26.159Z,100037.58
2024-04-10T19:59:30.342Z,100038.52
2024-04-10T20:04:33.778Z,100044.02
2024-04-10T20:09:36.868Z,100046.15
2024-04-10T20:14:40.034Z,100048.88
2024-04-10T20:19:46.637Z,100049.08
2024-04-10T20:24:51.675Z,100049.48
2024-04-10T20:29:55.015Z,100055.86
2024-04-10T20:34:58.496Z,100066.79
2024-04-10T20:40:01.761Z,100073.50
2024-04-10T20:45:05.499Z,100080.63
2024-04-10T20:50:09.423Z,100082.42
2024-04-10T20:55:12.404Z,100086.16
2024-04-10T21:00:16.472Z,100086.39
2024-04-10T21:05:19.548Z,100092.67
2024-04-10T21:10:40.975Z,100101.02
2024-04-10T21:16:03.588Z,100104.83
2024-04-10T21:21:24.878Z,100105.84
2024-04-10T21:26:48.687Z,100115.15
2024-04-10T21:32:10.057Z,100124.55
2024-04-10T21:37:32.368Z,100131.75
2024-04-10T21:42:53.534Z,100138.86
2024-04-10T21:48:14.909Z,100141.55
2024-04-10T21:53:37.205Z,100141.16
2024-04-10T21:58:58.468Z,100136.16
2024-04-10T22:04:19.875Z,100139.96
2024-04-10T22:09:25.703Z,100137.45
2024-04-10T22:14:31.460Z,100142.89
2024-04-10T22:19:53.478Z,100156.21
2024-04-10T22:24:57.029Z,100166.27
2024-04-10T22:30:00.223Z,100173.60
2024-04-10T22:35:03.807Z,100172.54
2024-04-10T22:40:09.051Z,100174.66
2024-04-10T22:45:12.048Z,100179.48
2024-04-10T22:50:16.549Z,100178.32
2024-04-10T22:55:20.759Z,100178.77
2024-04-10T23:00:23.617Z,100181.12
2024-04-10T23:05:44.407Z,100180.48
2024-04-10T23:10:50.116Z,100181.05
2024-04-10T23:15:53.162Z,100179.70
2024-04-10T23:20:57.091Z,100182.27
2024-04-10T23:26:00.194Z,100180.45
2024-04-10T23:31:03.395Z,100179.82
2024-04-10T23:36:07.263Z,100178.97
2024-04-10T23:41:10.538Z,100172.70
2024-04-10T23:46:13.527Z,100168.42
2024-04-10T23:51:16.396Z,100172.45
2024-04-10T23:56:20.371Z,100173.18
